sensor_id;sensor_type;location;lat;lon;timestamp;temperature;humidity
65478;SHT31;53678;39.642;22.430;2023-07-24T00:00:03;30.84;49.54
65478;SHT31;53678;39.642;22.430;2023-07-24T00:02:30;30.97;49.22
65478;SHT31;53678;39.642;22.430;2023-07-24T00:04:55;31.02;49.07
65478;SHT31;53678;39.642;22.430;2023-07-24T00:07:21;30.90;49.41
65478;SHT31;53678;39.642;22.430;2023-07-24T00:09:47;31.07;49.25
65478;SHT31;53678;39.642;22.430;2023-07-24T00:12:13;31.03;49.29
65478;SHT31;53678;39.642;22.430;2023-07-24T00:14:39;30.87;49.89
65478;SHT31;53678;39.642;22.430;2023-07-24T00:17:05;30.90;49.83
65478;SHT31;53678;39.642;22.430;2023-07-24T00:19:30;30.97;49.83
65478;SHT31;53678;39.642;22.430;2023-07-24T00:21:56;30.86;49.94
65478;SHT31;53678;39.642;22.430;2023-07-24T00:24:22;30.99;49.89
65478;SHT31;53678;39.642;22.430;2023-07-24T00:26:48;31.04;49.89
65478;SHT31;53678;39.642;22.430;2023-07-24T00:29:13;30.89;50.32
65478;SHT31;53678;39.642;22.430;2023-07-24T00:31:39;30.86;50.96
65478;SHT31;53678;39.642;22.430;2023-07-24T00:34:05;30.92;50.75
65478;SHT31;53678;39.642;22.430;2023-07-24T00:36:32;31.04;50.60
65478;SHT31;53678;39.642;22.430;2023-07-24T00:38:58;30.89;51.03
65478;SHT31;53678;39.642;22.430;2023-07-24T00:41:24;30.79;51.33
65478;SHT31;53678;39.642;22.430;2023-07-24T00:43:50;30.90;51.71
65478;SHT31;53678;39.642;22.430;2023-07-24T00:46:15;30.87;51.50
65478;SHT31;53678;39.642;22.430;2023-07-24T00:48:41;30.72;51.72
65478;SHT31;53678;39.642;22.430;2023-07-24T00:51:07;30.75;51.78
65478;SHT31;53678;39.642;22.430;2023-07-24T00:53:33;30.84;51.59
65478;SHT31;53678;39.642;22.430;2023-07-24T00:55:59;30.87;51.45
65478;SHT31;53678;39.642;22.430;2023-07-24T00:58:26;30.94;51.37
65478;SHT31;53678;39.642;22.430;2023-07-24T01:00:52;30.99;51.19
65478;SHT31;53678;39.642;22.430;2023-07-24T01:03:18;30.93;50.89
65478;SHT31;53678;39.642;22.430;2023-07-24T01:05:44;30.32;51.82
65478;SHT31;53678;39.642;22.430;2023-07-24T01:08:11;29.94;52.99
65478;SHT31;53678;39.642;22.430;2023-07-24T01:10:37;29.66;53.72
65478;SHT31;53678;39.642;22.430;2023-07-24T01:13:10;29.12;55.47
65478;SHT31;53678;39.642;22.430;2023-07-24T01:16:06;29.02;55.53
65478;SHT31;53678;39.642;22.430;2023-07-24T01:18:34;29.12;55.35
65478;SHT31;53678;39.642;22.430;2023-07-24T01:21:04;29.05;55.53
65478;SHT31;53678;39.642;22.430;2023-07-24T01:26:08;29.47;54.75
65478;SHT31;53678;39.642;22.430;2023-07-24T01:28:35;29.19;55.26
65478;SHT31;53678;39.642;22.430;2023-07-24T01:31:00;29.39;54.80
65478;SHT31;53678;39.642;22.430;2023-07-24T01:33:26;29.52;54.57
65478;SHT31;53678;39.642;22.430;2023-07-24T01:35:58;29.60;54.40
65478;SHT31;53678;39.642;22.430;2023-07-24T01:38:25;29.66;54.69
65478;SHT31;53678;39.642;22.430;2023-07-24T01:40:52;29.77;54.64
65478;SHT31;53678;39.642;22.430;2023-07-24T01:43:19;29.84;54.19
65478;SHT31;53678;39.642;22.430;2023-07-24T01:45:44;29.96;53.90
65478;SHT31;53678;39.642;22.430;2023-07-24T01:48:10;30.04;54.17
65478;SHT31;53678;39.642;22.430;2023-07-24T01:50:36;30.04;54.51
65478;SHT31;53678;39.642;22.430;2023-07-24T01:53:02;30.10;54.28
65478;SHT31;53678;39.642;22.430;2023-07-24T01:55:28;29.97;54.78
65478;SHT31;53678;39.642;22.430;2023-07-24T01:57:53;30.04;54.67
65478;SHT31;53678;39.642;22.430;2023-07-24T02:00:19;30.17;54.48
65478;SHT31;53678;39.642;22.430;2023-07-24T02:02:45;30.28;54.30
65478;SHT31;53678;39.642;22.430;2023-07-24T02:05:10;30.29;54.33
65478;SHT31;53678;39.642;22.430;2023-07-24T02:07:36;30.32;54.46
65478;SHT31;53678;39.642;22.430;2023-07-24T02:10:02;30.31;53.90
65478;SHT31;53678;39.642;22.430;2023-07-24T02:12:28;30.46;53.51
65478;SHT31;53678;39.642;22.430;2023-07-24T02:14:54;30.29;53.94
65478;SHT31;53678;39.642;22.430;2023-07-24T02:17:20;30.08;55.11
65478;SHT31;53678;39.642;22.430;2023-07-24T02:19:46;29.90;57.38
65478;SHT31;53678;39.642;22.430;2023-07-24T02:22:12;29.77;58.26
65478;SHT31;53678;39.642;22.430;2023-07-24T02:24:38;29.66;59.56
65478;SHT31;53678;39.642;22.430;2023-07-24T02:27:05;29.42;60.11
65478;SHT31;53678;39.642;22.430;2023-07-24T02:29:31;29.33;60.67
65478;SHT31;53678;39.642;22.430;2023-07-24T02:31:57;29.14;62.13
65478;SHT31;53678;39.642;22.430;2023-07-24T02:34:23;29.11;62.17
65478;SHT31;53678;39.642;22.430;2023-07-24T02:36:55;29.14;63.25
65478;SHT31;53678;39.642;22.430;2023-07-24T02:39:21;29.07;63.65
65478;SHT31;53678;39.642;22.430;2023-07-24T02:41:48;28.94;64.45
65478;SHT31;53678;39.642;22.430;2023-07-24T02:44:14;28.49;66.70
65478;SHT31;53678;39.642;22.430;2023-07-24T02:46:39;28.53;67.45
65478;SHT31;53678;39.642;22.430;2023-07-24T02:49:05;28.23;69.19
65478;SHT31;53678;39.642;22.430;2023-07-24T02:51:31;28.09;70.91
65478;SHT31;53678;39.642;22.430;2023-07-24T02:53:57;28.09;71.57
65478;SHT31;53678;39.642;22.430;2023-07-24T02:56:23;27.99;72.74
65478;SHT31;53678;39.642;22.430;2023-07-24T02:58:48;27.93;73.68
65478;SHT31;53678;39.642;22.430;2023-07-24T03:01:14;27.95;73.65
65478;SHT31;53678;39.642;22.430;2023-07-24T03:03:41;27.88;74.63
65478;SHT31;53678;39.642;22.430;2023-07-24T03:06:07;28.02;74.18
65478;SHT31;53678;39.642;22.430;2023-07-24T03:08:33;28.13;74.83
65478;SHT31;53678;39.642;22.430;2023-07-24T03:10:59;28.09;75.47
65478;SHT31;53678;39.642;22.430;2023-07-24T03:13:26;28.09;74.99
65478;SHT31;53678;39.642;22.430;2023-07-24T03:15:56;28.06;74.79
65478;SHT31;53678;39.642;22.430;2023-07-24T03:18:22;28.30;73.79
65478;SHT31;53678;39.642;22.430;2023-07-24T03:20:49;28.39;71.94
65478;SHT31;53678;39.642;22.430;2023-07-24T03:23:15;28.51;70.64
65478;SHT31;53678;39.642;22.430;2023-07-24T03:25:41;28.47;69.82
65478;SHT31;53678;39.642;22.430;2023-07-24T03:28:07;28.27;69.21
65478;SHT31;53678;39.642;22.430;2023-07-24T03:30:32;28.36;67.33
65478;SHT31;53678;39.642;22.430;2023-07-24T03:32:58;28.14;66.09
65478;SHT31;53678;39.642;22.430;2023-07-24T03:35:24;28.17;64.71
65478;SHT31;53678;39.642;22.430;2023-07-24T03:37:50;28.27;63.18
65478;SHT31;53678;39.642;22.430;2023-07-24T03:40:16;28.44;61.36
65478;SHT31;53678;39.642;22.430;2023-07-24T03:42:42;28.49;60.61
65478;SHT31;53678;39.642;22.430;2023-07-24T03:45:08;28.82;60.54
65478;SHT31;53678;39.642;22.430;2023-07-24T03:47:34;29.15;59.28
65478;SHT31;53678;39.642;22.430;2023-07-24T03:50:00;29.55;58.39
65478;SHT31;53678;39.642;22.430;2023-07-24T03:52:25;29.69;57.16
65478;SHT31;53678;39.642;22.430;2023-07-24T03:54:51;29.60;56.97
65478;SHT31;53678;39.642;22.430;2023-07-24T03:57:17;29.81;56.49
65478;SHT31;53678;39.642;22.430;2023-07-24T03:59:43;29.55;56.87
65478;SHT31;53678;39.642;22.430;2023-07-24T04:02:09;29.60;56.46
65478;SHT31;53678;39.642;22.430;2023-07-24T04:04:35;29.73;56.12
65478;SHT31;53678;39.642;22.430;2023-07-24T04:07:00;30.20;56.88
65478;SHT31;53678;39.642;22.430;2023-07-24T04:09:26;30.21;57.02
65478;SHT31;53678;39.642;22.430;2023-07-24T04:11:52;30.29;57.62
65478;SHT31;53678;39.642;22.430;2023-07-24T04:14:18;30.38;56.63
65478;SHT31;53678;39.642;22.430;2023-07-24T04:16:44;30.35;56.40
65478;SHT31;53678;39.642;22.430;2023-07-24T04:19:10;30.62;55.78
65478;SHT31;53678;39.642;22.430;2023-07-24T04:21:36;30.71;55.56
65478;SHT31;53678;39.642;22.430;2023-07-24T04:24:02;31.20;54.57
65478;SHT31;53678;39.642;22.430;2023-07-24T04:26:27;31.26;55.13
65478;SHT31;53678;39.642;22.430;2023-07-24T04:28:53;31.27;54.99
65478;SHT31;53678;39.642;22.430;2023-07-24T04:31:19;31.72;54.83
65478;SHT31;53678;39.642;22.430;2023-07-24T04:33:45;31.93;55.29
65478;SHT31;53678;39.642;22.430;2023-07-24T04:36:10;32.61;54.10
65478;SHT31;53678;39.642;22.430;2023-07-24T04:38:36;33.32;53.18
65478;SHT31;53678;39.642;22.430;2023-07-24T04:41:02;33.86;52.13
65478;SHT31;53678;39.642;22.430;2023-07-24T04:43:28;34.10;51.11
65478;SHT31;53678;39.642;22.430;2023-07-24T04:45:54;34.27;51.41
65478;SHT31;53678;39.642;22.430;2023-07-24T04:48:20;34.92;49.78
65478;SHT31;53678;39.642;22.430;2023-07-24T04:50:46;34.81;49.62
65478;SHT31;53678;39.642;22.430;2023-07-24T04:53:12;35.32;48.95
65478;SHT31;53678;39.642;22.430;2023-07-24T04:55:37;35.47;48.70
65478;SHT31;53678;39.642;22.430;2023-07-24T04:58:03;35.42;49.03
65478;SHT31;53678;39.642;22.430;2023-07-24T05:00:29;35.95;48.28
65478;SHT31;53678;39.642;22.430;2023-07-24T05:02:54;36.29;47.61
65478;SHT31;53678;39.642;22.430;2023-07-24T05:05:20;36.84;46.27
65478;SHT31;53678;39.642;22.430;2023-07-24T05:07:46;37.07;45.79
65478;SHT31;53678;39.642;22.430;2023-07-24T05:10:11;37.34;46.03
65478;SHT31;53678;39.642;22.430;2023-07-24T05:12:41;36.29;47.77
65478;SHT31;53678;39.642;22.430;2023-07-24T05:15:08;35.05;50.72
65478;SHT31;53678;39.642;22.430;2023-07-24T05:17:34;36.02;48.59
65478;SHT31;53678;39.642;22.430;2023-07-24T05:19:59;37.01;47.00
65478;SHT31;53678;39.642;22.430;2023-07-24T05:22:25;37.51;46.00
65478;SHT31;53678;39.642;22.430;2023-07-24T05:24:51;37.69;46.09
65478;SHT31;53678;39.642;22.430;2023-07-24T05:27:17;37.92;45.75
65478;SHT31;53678;39.642;22.430;2023-07-24T05:29:42;36.32;48.36
65478;SHT31;53678;39.642;22.430;2023-07-24T05:32:09;34.72;51.58
65478;SHT31;53678;39.642;22.430;2023-07-24T05:34:34;35.93;49.54
65478;SHT31;53678;39.642;22.430;2023-07-24T05:37:00;36.28;48.78
65478;SHT31;53678;39.642;22.430;2023-07-24T05:39:26;34.72;51.35
65478;SHT31;53678;39.642;22.430;2023-07-24T05:41:51;34.61;51.89
65478;SHT31;53678;39.642;22.430;2023-07-24T05:44:17;35.05;51.34
65478;SHT31;53678;39.642;22.430;2023-07-24T05:46:43;34.89;51.87
65478;SHT31;53678;39.642;22.430;2023-07-24T05:49:08;34.98;51.56
65478;SHT31;53678;39.642;22.430;2023-07-24T05:51:34;33.94;53.54
65478;SHT31;53678;39.642;22.430;2023-07-24T05:54:00;32.90;56.18
65478;SHT31;53678;39.642;22.430;2023-07-24T05:56:27;33.59;54.40
65478;SHT31;53678;39.642;22.430;2023-07-24T05:58:53;34.04;53.98
65478;SHT31;53678;39.642;22.430;2023-07-24T06:01:19;34.27;53.54
65478;SHT31;53678;39.642;22.430;2023-07-24T06:03:44;33.46;54.60
65478;SHT31;53678;39.642;22.430;2023-07-24T06:06:10;32.84;56.48
65478;SHT31;53678;39.642;22.430;2023-07-24T06:08:36;33.32;55.63
65478;SHT31;53678;39.642;22.430;2023-07-24T06:11:01;33.49;54.97
65478;SHT31;53678;39.642;22.430;2023-07-24T06:13:27;33.32;55.52
65478;SHT31;53678;39.642;22.430;2023-07-24T06:15:53;33.51;55.30
65478;SHT31;53678;39.642;22.430;2023-07-24T06:18:19;33.89;55.05
65478;SHT31;53678;39.642;22.430;2023-07-24T06:20:44;33.77;55.32
65478;SHT31;53678;39.642;22.430;2023-07-24T06:23:10;33.89;54.73
65478;SHT31;53678;39.642;22.430;2023-07-24T06:25:36;33.90;54.93
65478;SHT31;53678;39.642;22.430;2023-07-24T06:28:02;33.76;55.01
65478;SHT31;53678;39.642;22.430;2023-07-24T06:30:27;34.17;54.33
65478;SHT31;53678;39.642;22.430;2023-07-24T06:32:53;34.36;53.90
65478;SHT31;53678;39.642;22.430;2023-07-24T06:35:19;34.64;53.63
65478;SHT31;53678;39.642;22.430;2023-07-24T06:37:44;33.94;55.02
65478;SHT31;53678;39.642;22.430;2023-07-24T06:40:11;33.61;55.50
65478;SHT31;53678;39.642;22.430;2023-07-24T06:42:36;34.06;54.66
65478;SHT31;53678;39.642;22.430;2023-07-24T06:45:02;34.91;53.16
65478;SHT31;53678;39.642;22.430;2023-07-24T06:47:28;34.55;53.44
65478;SHT31;53678;39.642;22.430;2023-07-24T06:49:54;35.15;52.11
65478;SHT31;53678;39.642;22.430;2023-07-24T06:52:20;34.86;52.61
65478;SHT31;53678;39.642;22.430;2023-07-24T06:54:45;35.03;52.37
65478;SHT31;53678;39.642;22.430;2023-07-24T06:57:11;34.71;52.93
65478;SHT31;53678;39.642;22.430;2023-07-24T06:59:37;35.29;52.04
65478;SHT31;53678;39.642;22.430;2023-07-24T07:02:03;35.78;50.93
65478;SHT31;53678;39.642;22.430;2023-07-24T07:04:29;36.02;49.56
65478;SHT31;53678;39.642;22.430;2023-07-24T07:06:55;36.72;48.35
65478;SHT31;53678;39.642;22.430;2023-07-24T07:09:20;36.27;49.00
65478;SHT31;53678;39.642;22.430;2023-07-24T07:11:48;36.35;49.06
65478;SHT31;53678;39.642;22.430;2023-07-24T07:14:14;35.80;49.31
65478;SHT31;53678;39.642;22.430;2023-07-24T07:16:40;35.88;50.02
65478;SHT31;53678;39.642;22.430;2023-07-24T07:19:06;35.58;50.46
65478;SHT31;53678;39.642;22.430;2023-07-24T07:21:32;35.70;50.42
65478;SHT31;53678;39.642;22.430;2023-07-24T07:23:57;35.23;50.32
65478;SHT31;53678;39.642;22.430;2023-07-24T07:26:23;35.69;49.80
65478;SHT31;53678;39.642;22.430;2023-07-24T07:28:49;35.91;49.95
65478;SHT31;53678;39.642;22.430;2023-07-24T07:31:14;36.18;49.67
65478;SHT31;53678;39.642;22.430;2023-07-24T07:33:40;35.74;49.70
65478;SHT31;53678;39.642;22.430;2023-07-24T07:36:06;35.29;50.16
65478;SHT31;53678;39.642;22.430;2023-07-24T07:38:32;34.81;51.27
65478;SHT31;53678;39.642;22.430;2023-07-24T07:40:58;35.09;50.20
65478;SHT31;53678;39.642;22.430;2023-07-24T07:43:23;36.02;48.92
65478;SHT31;53678;39.642;22.430;2023-07-24T07:45:49;36.33;47.90
65478;SHT31;53678;39.642;22.430;2023-07-24T07:48:15;34.79;49.96
65478;SHT31;53678;39.642;22.430;2023-07-24T07:50:41;35.72;47.67
65478;SHT31;53678;39.642;22.430;2023-07-24T07:53:06;36.43;45.28
65478;SHT31;53678;39.642;22.430;2023-07-24T07:55:32;36.48;44.03
65478;SHT31;53678;39.642;22.430;2023-07-24T07:57:58;36.36;44.73
65478;SHT31;53678;39.642;22.430;2023-07-24T08:00:24;36.35;44.82
65478;SHT31;53678;39.642;22.430;2023-07-24T08:02:49;36.70;44.47
65478;SHT31;53678;39.642;22.430;2023-07-24T08:05:15;36.45;44.22
65478;SHT31;53678;39.642;22.430;2023-07-24T08:07:41;36.76;43.83
65478;SHT31;53678;39.642;22.430;2023-07-24T08:10:07;36.35;44.14
65478;SHT31;53678;39.642;22.430;2023-07-24T08:12:33;36.63;43.96
65478;SHT31;53678;39.642;22.430;2023-07-24T08:14:58;37.07;43.31
65478;SHT31;53678;39.642;22.430;2023-07-24T08:17:24;36.33;44.52
65478;SHT31;53678;39.642;22.430;2023-07-24T08:19:50;36.27;45.10
65478;SHT31;53678;39.642;22.430;2023-07-24T08:22:15;36.69;44.29
65478;SHT31;53678;39.642;22.430;2023-07-24T08:24:41;36.86;43.89
65478;SHT31;53678;39.642;22.430;2023-07-24T08:27:07;36.69;43.91
65478;SHT31;53678;39.642;22.430;2023-07-24T08:29:33;36.87;43.45
65478;SHT31;53678;39.642;22.430;2023-07-24T08:32:01;37.01;43.66
65478;SHT31;53678;39.642;22.430;2023-07-24T08:34:27;36.99;43.64
65478;SHT31;53678;39.642;22.430;2023-07-24T08:36:52;36.78;44.17
65478;SHT31;53678;39.642;22.430;2023-07-24T08:39:18;36.43;44.13
65478;SHT31;53678;39.642;22.430;2023-07-24T08:41:44;36.90;43.75
65478;SHT31;53678;39.642;22.430;2023-07-24T08:44:10;36.56;43.97
65478;SHT31;53678;39.642;22.430;2023-07-24T08:46:37;36.51;44.20
65478;SHT31;53678;39.642;22.430;2023-07-24T08:49:04;36.51;44.42
65478;SHT31;53678;39.642;22.430;2023-07-24T08:51:31;36.90;43.39
65478;SHT31;53678;39.642;22.430;2023-07-24T08:53:59;36.63;43.35
65478;SHT31;53678;39.642;22.430;2023-07-24T08:56:26;36.12;43.06
65478;SHT31;53678;39.642;22.430;2023-07-24T08:58:52;35.40;44.51
65478;SHT31;53678;39.642;22.430;2023-07-24T09:01:18;36.08;41.93
65478;SHT31;53678;39.642;22.430;2023-07-24T09:03:43;35.81;43.17
65478;SHT31;53678;39.642;22.430;2023-07-24T09:06:09;36.68;41.58
65478;SHT31;53678;39.642;22.430;2023-07-24T09:08:40;35.67;43.05
65478;SHT31;53678;39.642;22.430;2023-07-24T09:11:07;35.85;41.96
65478;SHT31;53678;39.642;22.430;2023-07-24T09:13:35;36.91;40.78
65478;SHT31;53678;39.642;22.430;2023-07-24T09:16:01;36.93;40.36
65478;SHT31;53678;39.642;22.430;2023-07-24T09:18:39;36.80;41.60
65478;SHT31;53678;39.642;22.430;2023-07-24T09:21:04;36.69;43.45
65478;SHT31;53678;39.642;22.430;2023-07-24T09:23:30;36.68;43.74
65478;SHT31;53678;39.642;22.430;2023-07-24T09:25:56;36.78;43.69
65478;SHT31;53678;39.642;22.430;2023-07-24T09:28:22;36.78;43.19
65478;SHT31;53678;39.642;22.430;2023-07-24T09:30:55;37.24;43.00
65478;SHT31;53678;39.642;22.430;2023-07-24T09:33:38;37.18;42.39
65478;SHT31;53678;39.642;22.430;2023-07-24T09:36:06;37.48;41.60
65478;SHT31;53678;39.642;22.430;2023-07-24T09:38:37;37.49;40.52
65478;SHT31;53678;39.642;22.430;2023-07-24T09:41:03;37.85;41.00
65478;SHT31;53678;39.642;22.430;2023-07-24T09:43:30;38.06;41.02
65478;SHT31;53678;39.642;22.430;2023-07-24T09:45:56;37.55;41.18
65478;SHT31;53678;39.642;22.430;2023-07-24T09:48:26;37.69;41.22
65478;SHT31;53678;39.642;22.430;2023-07-24T09:50:54;37.55;40.12
65478;SHT31;53678;39.642;22.430;2023-07-24T09:56:08;37.60;40.02
65478;SHT31;53678;39.642;22.430;2023-07-24T09:58:36;37.93;39.52
65478;SHT31;53678;39.642;22.430;2023-07-24T10:01:04;37.90;38.63
65478;SHT31;53678;39.642;22.430;2023-07-24T10:03:34;37.90;36.97
65478;SHT31;53678;39.642;22.430;2023-07-24T10:06:00;37.68;36.88
65478;SHT31;53678;39.642;22.430;2023-07-24T10:08:27;37.62;38.19
65478;SHT31;53678;39.642;22.430;2023-07-24T10:10:53;37.55;38.90
65478;SHT31;53678;39.642;22.430;2023-07-24T10:13:20;37.65;38.41
65478;SHT31;53678;39.642;22.430;2023-07-24T10:15:47;37.89;39.44
65478;SHT31;53678;39.642;22.430;2023-07-24T10:18:16;37.69;40.17
65478;SHT31;53678;39.642;22.430;2023-07-24T10:20:43;37.37;41.49
65478;SHT31;53678;39.642;22.430;2023-07-24T10:23:11;37.09;41.56
65478;SHT31;53678;39.642;22.430;2023-07-24T10:25:44;37.04;41.26
65478;SHT31;53678;39.642;22.430;2023-07-24T10:28:11;37.18;40.46
65478;SHT31;53678;39.642;22.430;2023-07-24T10:30:39;37.35;39.90
65478;SHT31;53678;39.642;22.430;2023-07-24T10:33:12;37.53;39.49
65478;SHT31;53678;39.642;22.430;2023-07-24T10:38:16;37.23;40.12
65478;SHT31;53678;39.642;22.430;2023-07-24T10:40:44;37.18;40.42
65478;SHT31;53678;39.642;22.430;2023-07-24T10:43:12;37.31;40.15
65478;SHT31;53678;39.642;22.430;2023-07-24T10:45:57;37.20;40.90
65478;SHT31;53678;39.642;22.430;2023-07-24T10:48:24;37.35;40.86
65478;SHT31;53678;39.642;22.430;2023-07-24T10:50:51;36.96;41.51
65478;SHT31;53678;39.642;22.430;2023-07-24T10:53:19;36.94;41.38
65478;SHT31;53678;39.642;22.430;2023-07-24T10:55:46;36.63;41.29
65478;SHT31;53678;39.642;22.430;2023-07-24T10:58:16;36.72;41.34
65478;SHT31;53678;39.642;22.430;2023-07-24T11:00:43;36.83;40.53
65478;SHT31;53678;39.642;22.430;2023-07-24T11:03:13;36.87;40.18
65478;SHT31;53678;39.642;22.430;2023-07-24T11:05:44;37.20;40.07
65478;SHT31;53678;39.642;22.430;2023-07-24T11:08:15;36.99;44.38
65478;SHT31;53678;39.642;22.430;2023-07-24T11:10:52;36.36;45.58
65478;SHT31;53678;39.642;22.430;2023-07-24T11:13:25;36.45;45.00
65478;SHT31;53678;39.642;22.430;2023-07-24T11:15:52;36.49;44.76
65478;SHT31;53678;39.642;22.430;2023-07-24T11:18:19;36.17;45.97
65478;SHT31;53678;39.642;22.430;2023-07-24T11:20:52;36.27;45.59
65478;SHT31;53678;39.642;22.430;2023-07-24T11:23:18;36.53;44.40
65478;SHT31;53678;39.642;22.430;2023-07-24T11:25:45;36.97;44.00
65478;SHT31;53678;39.642;22.430;2023-07-24T11:28:13;36.86;43.19
65478;SHT31;53678;39.642;22.430;2023-07-24T11:30:41;36.87;42.48
65478;SHT31;53678;39.642;22.430;2023-07-24T11:33:09;36.87;42.06
65478;SHT31;53678;39.642;22.430;2023-07-24T11:35:35;36.89;40.75
65478;SHT31;53678;39.642;22.430;2023-07-24T11:38:02;37.01;41.33
65478;SHT31;53678;39.642;22.430;2023-07-24T11:42:58;37.13;42.39
65478;SHT31;53678;39.642;22.430;2023-07-24T11:45:24;37.06;42.63
65478;SHT31;53678;39.642;22.430;2023-07-24T11:47:50;36.72;42.74
65478;SHT31;53678;39.642;22.430;2023-07-24T11:50:19;36.66;42.63
65478;SHT31;53678;39.642;22.430;2023-07-24T11:52:47;36.66;43.18
65478;SHT31;53678;39.642;22.430;2023-07-24T11:55:15;36.41;43.98
65478;SHT31;53678;39.642;22.430;2023-07-24T11:57:41;36.89;42.85
65478;SHT31;53678;39.642;22.430;2023-07-24T12:00:21;36.97;42.35
65478;SHT31;53678;39.642;22.430;2023-07-24T12:02:47;37.03;42.77
65478;SHT31;53678;39.642;22.430;2023-07-24T12:05:12;37.03;42.32
65478;SHT31;53678;39.642;22.430;2023-07-24T12:07:39;36.53;44.07
65478;SHT31;53678;39.642;22.430;2023-07-24T12:10:05;36.38;44.61
65478;SHT31;53678;39.642;22.430;2023-07-24T12:12:45;36.48;45.10
65478;SHT31;53678;39.642;22.430;2023-07-24T12:15:12;36.27;46.08
65478;SHT31;53678;39.642;22.430;2023-07-24T12:17:38;36.28;45.07
65478;SHT31;53678;39.642;22.430;2023-07-24T12:20:04;36.36;44.54
65478;SHT31;53678;39.642;22.430;2023-07-24T12:22:32;36.49;44.60
65478;SHT31;53678;39.642;22.430;2023-07-24T12:24:57;36.45;45.25
65478;SHT31;53678;39.642;22.430;2023-07-24T12:27:24;36.15;46.47
65478;SHT31;53678;39.642;22.430;2023-07-24T12:29:51;36.32;45.84
65478;SHT31;53678;39.642;22.430;2023-07-24T12:32:17;36.32;44.82
65478;SHT31;53678;39.642;22.430;2023-07-24T12:34:47;36.57;44.42
65478;SHT31;53678;39.642;22.430;2023-07-24T12:37:13;36.59;43.72
65478;SHT31;53678;39.642;22.430;2023-07-24T12:39:39;36.56;45.00
65478;SHT31;53678;39.642;22.430;2023-07-24T12:42:05;36.35;45.51
65478;SHT31;53678;39.642;22.430;2023-07-24T12:44:32;36.53;45.17
65478;SHT31;53678;39.642;22.430;2023-07-24T12:46:57;36.84;44.10
65478;SHT31;53678;39.642;22.430;2023-07-24T12:49:23;37.37;43.06
65478;SHT31;53678;39.642;22.430;2023-07-24T12:51:49;37.58;42.83
65478;SHT31;53678;39.642;22.430;2023-07-24T12:54:15;37.74;42.92
65478;SHT31;53678;39.642;22.430;2023-07-24T12:56:40;37.58;42.09
65478;SHT31;53678;39.642;22.430;2023-07-24T12:59:06;37.68;41.75
65478;SHT31;53678;39.642;22.430;2023-07-24T13:01:32;37.60;42.31
65478;SHT31;53678;39.642;22.430;2023-07-24T13:03:58;37.99;42.63
65478;SHT31;53678;39.642;22.430;2023-07-24T13:06:24;37.78;41.74
65478;SHT31;53678;39.642;22.430;2023-07-24T13:08:50;37.71;41.42
65478;SHT31;53678;39.642;22.430;2023-07-24T13:11:16;37.64;42.99
65478;SHT31;53678;39.642;22.430;2023-07-24T13:13:41;37.85;42.88
65478;SHT31;53678;39.642;22.430;2023-07-24T13:16:07;37.64;42.59
65478;SHT31;53678;39.642;22.430;2023-07-24T13:18:33;37.55;42.88
65478;SHT31;53678;39.642;22.430;2023-07-24T13:20:59;37.35;43.89
65478;SHT31;53678;39.642;22.430;2023-07-24T13:23:24;37.45;43.23
65478;SHT31;53678;39.642;22.430;2023-07-24T13:25:52;37.45;41.03
65478;SHT31;53678;39.642;22.430;2023-07-24T13:28:18;37.45;43.20
65478;SHT31;53678;39.642;22.430;2023-07-24T13:30:44;37.38;43.84
65478;SHT31;53678;39.642;22.430;2023-07-24T13:33:09;37.53;42.61
65478;SHT31;53678;39.642;22.430;2023-07-24T13:35:35;37.90;42.74
65478;SHT31;53678;39.642;22.430;2023-07-24T13:38:01;37.35;44.29
65478;SHT31;53678;39.642;22.430;2023-07-24T13:40:27;37.17;43.73
65478;SHT31;53678;39.642;22.430;2023-07-24T13:42:52;37.24;43.65
65478;SHT31;53678;39.642;22.430;2023-07-24T13:45:18;37.14;43.89
65478;SHT31;53678;39.642;22.430;2023-07-24T13:47:44;37.38;43.24
65478;SHT31;53678;39.642;22.430;2023-07-24T13:50:09;37.34;43.86
65478;SHT31;53678;39.642;22.430;2023-07-24T13:52:35;37.01;44.56
65478;SHT31;53678;39.642;22.430;2023-07-24T13:55:01;37.13;44.43
65478;SHT31;53678;39.642;22.430;2023-07-24T13:57:27;37.00;44.87
65478;SHT31;53678;39.642;22.430;2023-07-24T13:59:52;37.42;43.65
65478;SHT31;53678;39.642;22.430;2023-07-24T14:02:18;37.27;43.24
65478;SHT31;53678;39.642;22.430;2023-07-24T14:04:44;37.04;45.58
65478;SHT31;53678;39.642;22.430;2023-07-24T14:07:10;37.20;46.12
65478;SHT31;53678;39.642;22.430;2023-07-24T14:09:38;37.06;44.69
65478;SHT31;53678;39.642;22.430;2023-07-24T14:12:04;36.91;46.18
65478;SHT31;53678;39.642;22.430;2023-07-24T14:14:30;36.83;45.99
65478;SHT31;53678;39.642;22.430;2023-07-24T14:16:56;36.70;46.35
65478;SHT31;53678;39.642;22.430;2023-07-24T14:19:22;36.29;48.10
65478;SHT31;53678;39.642;22.430;2023-07-24T14:21:51;36.51;47.73
65478;SHT31;53678;39.642;22.430;2023-07-24T14:24:17;36.65;45.95
65478;SHT31;53678;39.642;22.430;2023-07-24T14:26:43;36.22;47.70
65478;SHT31;53678;39.642;22.430;2023-07-24T14:29:10;36.11;48.38
65478;SHT31;53678;39.642;22.430;2023-07-24T14:31:37;35.94;48.46
65478;SHT31;53678;39.642;22.430;2023-07-24T14:34:06;36.02;47.95
65478;SHT31;53678;39.642;22.430;2023-07-24T14:36:36;36.06;48.45
65478;SHT31;53678;39.642;22.430;2023-07-24T14:39:03;35.91;48.24
65478;SHT31;53678;39.642;22.430;2023-07-24T14:41:29;35.81;48.53
65478;SHT31;53678;39.642;22.430;2023-07-24T14:43:55;35.78;48.98
65478;SHT31;53678;39.642;22.430;2023-07-24T14:46:20;35.47;49.93
65478;SHT31;53678;39.642;22.430;2023-07-24T14:48:46;35.37;48.94
65478;SHT31;53678;39.642;22.430;2023-07-24T14:51:12;35.20;49.17
65478;SHT31;53678;39.642;22.430;2023-07-24T14:53:37;35.47;49.44
65478;SHT31;53678;39.642;22.430;2023-07-24T14:56:03;35.42;49.72
65478;SHT31;53678;39.642;22.430;2023-07-24T14:58:29;35.51;49.63
65478;SHT31;53678;39.642;22.430;2023-07-24T15:00:55;35.33;49.51
65478;SHT31;53678;39.642;22.430;2023-07-24T15:03:22;35.03;50.36
65478;SHT31;53678;39.642;22.430;2023-07-24T15:05:47;35.06;50.20
65478;SHT31;53678;39.642;22.430;2023-07-24T15:08:13;35.42;49.82
65478;SHT31;53678;39.642;22.430;2023-07-24T15:10:39;35.12;50.59
65478;SHT31;53678;39.642;22.430;2023-07-24T15:13:05;34.98;50.77
65478;SHT31;53678;39.642;22.430;2023-07-24T15:15:31;35.19;50.15
65478;SHT31;53678;39.642;22.430;2023-07-24T15:17:59;35.36;49.93
65478;SHT31;53678;39.642;22.430;2023-07-24T15:20:24;35.05;49.34